Time;durP1;ratioP1;P1;durP2;ratioP2;P2;SDS_P1;SDS_P2;PMS_P1;PMS_P2;Temp;Humidity;BMP_temperature;BMP_pressure;BME280_temperature;BME280_humidity;BME280_pressure;Samples;Min_cycle;Max_cycle;Signal;HPM_P1;HPM_P2
2023/02/20 00:00:21;;;;;;;2.15;1.23;;;;;;;12.09;53.49;101585.91;5009452;28;20031;-81
2023/02/20 00:02:47;;;;;;;7.55;2.13;;;;;;;12.06;53.07;101573.09;4993020;28;20033;-81
2023/02/20 00:05:12;;;;;;;2.45;1.77;;;;;;;12.05;53.03;101571.41;4976842;28;20038;-81
2023/02/20 00:07:38;;;;;;;3.88;2.08;;;;;;;12.18;52.67;101579.53;5009069;28;20081;-81
2023/02/20 00:10:04;;;;;;;2.65;1.70;;;;;;;12.22;52.30;101584.53;5009379;28;20504;-81
2023/02/20 00:12:31;;;;;;;3.40;1.98;;;;;;;12.22;52.65;101581.94;5008915;28;20030;-81
2023/02/20 00:14:57;;;;;;;4.18;2.40;;;;;;;12.26;52.16;101590.44;4992571;28;20022;-81
2023/02/20 00:17:22;;;;;;;1.95;1.75;;;;;;;12.23;52.51;101573.25;5009250;28;20029;-81
2023/02/20 00:19:48;;;;;;;0.98;0.88;;;;;;;12.23;52.33;101591.41;5009228;28;20034;-81
2023/02/20 00:22:13;;;;;;;2.15;1.85;;;;;;;12.27;52.38;101595.56;5008780;28;20033;-81
2023/02/20 00:24:38;;;;;;;1.45;1.20;;;;;;;12.24;52.77;101593.09;5008989;28;20415;-81
2023/02/20 00:27:04;;;;;;;2.30;1.75;;;;;;;12.22;52.81;101602.69;5009000;28;20101;-81
2023/02/20 00:29:29;;;;;;;1.98;1.75;;;;;;;12.13;54.10;101600.47;4992181;28;20054;-81
2023/02/20 00:31:56;;;;;;;3.35;2.13;;;;;;;12.04;54.91;101613.81;5009032;28;20030;-81
2023/02/20 00:34:22;;;;;;;0.77;0.73;;;;;;;11.95;55.49;101627.97;4976317;28;20541;-81
2023/02/20 00:36:48;;;;;;;2.22;1.65;;;;;;;11.78;55.93;101614.75;4976028;28;20053;-81
2023/02/20 00:39:13;;;;;;;2.63;1.77;;;;;;;11.48;56.55;101608.97;5008734;28;20374;-81
2023/02/20 00:41:39;;;;;;;2.75;1.85;;;;;;;11.52;56.84;101622.69;4992433;28;20085;-80
2023/02/20 00:44:04;;;;;;;1.70;1.25;;;;;;;11.44;56.59;101612.59;5008723;28;20034;-80
2023/02/20 00:46:30;;;;;;;1.80;1.40;;;;;;;11.42;56.68;101604.06;4992401;28;20030;-81
2023/02/20 00:48:55;;;;;;;3.00;2.08;;;;;;;11.26;56.75;101608.94;5008820;28;20406;-80
2023/02/20 00:51:21;;;;;;;1.85;1.50;;;;;;;11.31;56.86;101621.75;4993412;28;20038;-81
2023/02/20 00:53:46;;;;;;;3.05;1.73;;;;;;;11.27;56.87;101625.31;5008256;28;20034;-81
2023/02/20 00:56:11;;;;;;;2.20;1.33;;;;;;;11.20;56.71;101607.41;4992195;28;20066;-81
2023/02/20 00:58:37;;;;;;;2.97;1.42;;;;;;;11.17;57.31;101604.94;4991998;28;20042;-81
2023/02/20 01:01:02;;;;;;;1.00;0.90;;;;;;;11.16;57.19;101602.41;5008123;28;20030;-81
2023/02/20 01:03:28;;;;;;;24.15;6.60;;;;;;;10.95;57.47;101588.47;5008023;28;20093;-81
2023/02/20 01:05:53;;;;;;;2.00;1.27;;;;;;;11.00;57.68;101603.81;4992316;28;20081;-81
2023/02/20 01:08:19;;;;;;;2.20;1.23;;;;;;;10.87;58.23;101612.03;4992009;28;20026;-81
2023/02/20 01:10:44;;;;;;;4.32;1.63;;;;;;;10.83;58.73;101619.97;4991900;28;20508;-81
2023/02/20 01:13:10;;;;;;;0.95;0.85;;;;;;;10.79;58.68;101629.56;4975605;28;20031;-81
2023/02/20 01:15:35;;;;;;;2.45;1.13;;;;;;;10.56;59.04;101608.78;5007910;28;20498;-81
2023/02/20 01:18:01;;;;;;;2.55;1.58;;;;;;;10.66;59.22;101649.00;5008094;28;20403;-81
2023/02/20 01:20:26;;;;;;;3.60;1.83;;;;;;;10.64;59.23;101645.63;4991140;28;20034;-81
2023/02/20 01:22:52;;;;;;;5.68;1.77;;;;;;;10.73;59.14;101660.84;4991770;28;20461;-81
2023/02/20 01:25:17;;;;;;;3.15;1.75;;;;;;;10.73;58.96;101660.00;5007982;28;20112;-81
2023/02/20 01:27:43;;;;;;;5.10;1.98;;;;;;;10.67;59.30;101650.69;4991355;28;20050;-81
2023/02/20 01:30:09;;;;;;;3.80;2.67;;;;;;;10.73;59.28;101663.44;5007557;28;20508;-81
2023/02/20 01:32:34;;;;;;;6.18;1.23;;;;;;;10.41;59.52;101620.47;4975200;28;20089;-81
2023/02/20 01:35:00;;;;;;;4.07;2.20;;;;;;;10.58;59.62;101625.94;4991269;28;20141;-81
2023/02/20 01:37:25;;;;;;;2.78;1.63;;;;;;;10.48;59.50;101621.97;4991298;28;20038;-81
2023/02/20 01:39:51;;;;;;;1.92;1.52;;;;;;;10.41;59.92;101628.22;4991321;28;20599;-81
2023/02/20 01:42:22;;;;;;;1.98;1.67;;;;;;;10.30;60.24;101651.00;5007609;28;20093;-80
2023/02/20 01:44:48;;;;;;;3.72;1.15;;;;;;;10.32;59.90;101649.22;4991280;28;20026;-80
2023/02/20 01:47:18;;;;;;;2.03;1.50;;;;;;;10.32;59.06;101647.50;4991213;28;20022;-81
2023/02/20 01:49:52;;;;;;;2.00;1.58;;;;;;;10.34;59.20;101647.44;4990533;28;20026;-80
2023/02/20 01:52:20;;;;;;;2.30;1.30;;;;;;;10.43;58.76;101656.66;4974560;28;20026;-80
2023/02/20 01:54:50;;;;;;;4.90;1.98;;;;;;;10.44;58.87;101622.97;4991174;28;20062;-80
2023/02/20 01:57:19;;;;;;;1.65;1.25;;;;;;;10.57;58.59;101608.72;4974880;28;20042;-80
2023/02/20 01:59:44;;;;;;;1.95;1.52;;;;;;;10.69;58.45;101635.09;4990872;28;20034;-80
2023/02/20 02:02:09;;;;;;;3.85;1.77;;;;;;;10.58;58.44;101605.25;4991017;28;20038;-81
2023/02/20 02:04:35;;;;;;;2.33;1.58;;;;;;;10.66;58.46;101605.00;5006953;28;20426;-81
2023/02/20 02:07:01;;;;;;;1.05;0.90;;;;;;;10.61;58.79;101592.19;4990724;28;20022;-81
2023/02/20 02:09:44;;;;;;;3.42;1.55;;;;;;;10.71;58.78;101616.03;5007216;28;20033;-81
2023/02/20 02:12:10;;;;;;;1.65;1.52;;;;;;;10.69;58.47;101620.41;5007406;28;20040;-80
2023/02/20 02:14:35;;;;;;;3.00;1.90;;;;;;;10.67;57.69;101613.59;4990662;28;20035;-81
2023/02/20 02:17:16;;;;;;;4.13;2.70;;;;;;;10.76;57.75;101618.47;4990517;28;20023;-80
2023/02/20 02:20:12;;;;;;;2.85;1.55;;;;;;;10.78;57.25;101633.03;4991528;28;20037;-80
2023/02/20 02:22:56;;;;;;;3.80;1.50;;;;;;;10.74;56.86;101635.81;4990593;28;20110;-81
2023/02/20 02:25:32;;;;;;;4.80;2.28;;;;;;;10.77;56.87;101638.28;4991403;28;20453;-81
2023/02/20 02:28:10;;;;;;;2.30;1.67;;;;;;;10.80;56.53;101640.75;5006721;28;20054;-80
2023/02/20 02:30:41;;;;;;;2.45;1.90;;;;;;;10.80;56.32;101659.72;5006732;28;20088;-81
2023/02/20 02:33:24;;;;;;;2.28;1.75;;;;;;;10.81;56.15;101676.09;4991103;28;20037;-81
2023/02/20 02:36:27;;;;;;;2.67;1.75;;;;;;;10.79;55.79;101683.06;4991572;28;20081;-81
2023/02/20 02:39:03;;;;;;;3.93;2.30;;;;;;;10.56;56.07;101640.69;4991521;28;20564;-81
2023/02/20 02:41:46;;;;;;;1.88;1.45;;;;;;;10.66;55.22;101686.97;4990239;28;20034;-81
2023/02/20 02:44:16;;;;;;;2.72;1.92;;;;;;;10.55;55.13;101671.78;5006048;28;20100;-81
2023/02/20 02:46:56;;;;;;;4.50;2.25;;;;;;;10.68;54.58;101704.13;4989773;28;20413;-81
2023/02/20 02:49:40;;;;;;;2.35;1.10;;;;;;;10.71;53.41;101705.75;4989961;28;20112;-81
2023/02/20 02:52:06;;;;;;;4.25;1.88;;;;;;;10.40;52.98;101670.50;4989757;28;20034;-81
2023/02/20 02:54:31;;;;;;;2.95;1.85;;;;;;;10.56;53.05;101718.31;5006479;28;20042;-80
2023/02/20 02:57:20;;;;;;;1.48;1.13;;;;;;;10.71;53.07;101701.44;4990008;28;20030;-81
2023/02/20 02:59:46;;;;;;;1.35;1.08;;;;;;;10.51;53.30;101701.22;4989887;28;20033;-81
2023/02/20 03:02:13;;;;;;;2.20;1.55;;;;;;;10.52;53.50;101701.19;4989472;28;20038;-81
2023/02/20 03:04:38;;;;;;;3.22;1.40;;;;;;;10.41;54.18;101692.91;4989860;28;20026;-80
2023/02/20 03:07:07;;;;;;;3.03;2.17;;;;;;;10.39;54.18;101705.03;4990061;28;20053;-80
2023/02/20 03:09:35;;;;;;;3.33;2.10;;;;;;;10.34;54.51;101704.34;4973699;28;20089;-81
2023/02/20 03:12:01;;;;;;;4.57;2.33;;;;;;;10.43;54.52;101719.59;4973651;28;20031;-80
2023/02/20 03:17:32;;;;;;;4.50;2.10;;;;;;;10.35;54.88;101729.31;4989529;28;20041;-81
2023/02/20 03:19:59;;;;;;;7.80;3.05;;;;;;;10.32;54.61;101726.81;5006292;28;20034;-81
2023/02/20 03:22:29;;;;;;;2.47;1.77;;;;;;;10.37;54.69;101734.44;4990027;28;20061;-81
2023/02/20 03:25:25;;;;;;;2.63;1.80;;;;;;;10.33;54.73;101749.22;5006215;28;20031;-81
2023/02/20 03:28:10;;;;;;;3.00;1.90;;;;;;;10.06;54.67;101723.25;4981912;28;20101;-80
2023/02/20 03:30:38;;;;;;;3.03;2.45;;;;;;;10.11;54.44;101768.78;4993433;28;20080;-81
2023/02/20 03:44:39;;;;;;;2.10;1.35;;;;;;;9.73;52.50;101763.81;5006992;28;20087;-81
2023/02/20 03:47:05;;;;;;;1.45;1.00;;;;;;;9.76;52.56;101775.81;5009814;28;20034;-81
2023/02/20 03:49:34;;;;;;;3.28;1.73;;;;;;;9.67;52.88;101788.97;5009695;28;20040;-81
2023/02/20 03:51:59;;;;;;;1.38;0.80;;;;;;;9.52;52.88;101774.72;4993254;28;20026;-81
2023/02/20 03:54:26;;;;;;;1.25;1.00;;;;;;;9.63;52.42;101805.44;4993409;28;20037;-81
2023/02/20 03:56:55;;;;;;;1.45;1.00;;;;;;;9.45;52.92;101793.88;4993076;28;20066;-81
2023/02/20 03:59:25;;;;;;;1.48;0.82;;;;;;;9.53;53.09;101785.88;4992808;28;20034;-81
2023/02/20 04:01:56;;;;;;;0.63;0.50;;;;;;;9.38;53.43;101784.56;4993141;28;20030;-80
2023/02/20 04:04:47;;;;;;;1.60;1.48;;;;;;;9.33;53.69;101797.56;4993225;28;20026;-78
2023/02/20 04:07:20;;;;;;;2.10;1.27;;;;;;;9.19;54.16;101774.69;5009656;28;20035;-79
2023/02/20 04:09:45;;;;;;;2.88;1.77;;;;;;;9.30;54.07;101789.91;4993086;28;20030;-78
2023/02/20 04:12:13;;;;;;;4.88;2.22;;;;;;;9.19;53.82;101766.09;4993020;28;20041;-78
2023/02/20 04:14:39;;;;;;;0.70;0.65;;;;;;;9.09;53.90;101785.28;5008752;28;20418;-78
2023/02/20 04:17:14;;;;;;;2.85;1.20;;;;;;;9.06;53.97;101775.91;4992920;28;20026;-79
2023/02/20 04:19:39;;;;;;;1.42;1.10;;;;;;;9.28;53.72;101809.78;4992739;28;20085;-78
2023/02/20 04:22:06;;;;;;;15.50;1.70;;;;;;;9.23;53.71;101818.50;5008827;28;20413;-78
2023/02/20 04:24:34;;;;;;;1.02;0.88;;;;;;;9.16;54.10;101823.00;4992733;28;20038;-78
2023/02/20 04:26:59;;;;;;;24.88;1.77;;;;;;;9.23;53.75;101831.41;5009011;28;20077;-78
2023/02/20 04:29:25;;;;;;;1.92;1.33;;;;;;;9.16;54.02;101817.81;4992212;28;20072;-78
2023/02/20 04:31:50;;;;;;;2.45;1.08;;;;;;;9.19;53.66;101830.66;5009153;28;20030;-78
2023/02/20 04:34:16;;;;;;;2.92;1.10;;;;;;;9.07;54.03;101833.53;4992391;28;20030;-79
2023/02/20 04:36:41;;;;;;;2.22;1.05;;;;;;;9.11;54.11;101855.78;4992087;28;20030;-79
2023/02/20 04:39:06;;;;;;;1.52;0.95;;;;;;;9.00;54.11;101855.19;5012779;28;20029;-84
2023/02/20 04:41:32;;;;;;;1.05;0.85;;;;;;;8.95;54.45;101851.84;5024911;28;20025;-82
2023/02/20 04:46:41;;;;;;;4.43;2.50;;;;;;;8.93;54.48;101857.06;5008864;28;20042;-82
2023/02/20 04:49:07;;;;;;;3.88;2.70;;;;;;;8.86;54.60;101858.94;4991818;28;20034;-82
2023/02/20 04:51:32;;;;;;;3.80;2.45;;;;;;;8.92;54.67;101870.84;4991754;28;20034;-82
2023/02/20 04:53:58;;;;;;;1.80;1.70;;;;;;;8.76;54.68;101854.03;5026810;28;20033;-82
2023/02/20 04:56:23;;;;;;;2.22;1.45;;;;;;;8.67;54.76;101855.06;5027894;28;20033;-82
2023/02/20 04:58:49;;;;;;;2.55;1.63;;;;;;;8.69;54.20;101842.13;5027625;28;20429;-82
2023/02/20 05:01:15;;;;;;;2.40;1.52;;;;;;;8.78;54.01;101863.41;5027816;28;20038;-82
2023/02/20 05:03:40;;;;;;;3.10;2.40;;;;;;;8.83;54.07;101871.91;5027527;28;20153;-82
2023/02/20 05:06:06;;;;;;;4.05;1.95;;;;;;;8.78;54.58;101860.00;5012362;28;20517;-82
2023/02/20 05:08:31;;;;;;;2.17;1.27;;;;;;;8.78;53.49;101866.00;5028240;28;20052;-89
2023/02/20 05:10:57;;;;;;;1.85;0.80;;;;;;;8.72;53.58;101847.22;5028510;28;20034;-93
2023/02/20 05:13:22;;;;;;;1.02;0.90;;;;;;;8.87;52.86;101880.44;5026167;28;20485;-89
2023/02/20 05:15:48;;;;;;;1.23;1.00;;;;;;;8.79;52.92;101885.75;5011553;28;20030;-93
2023/02/20 05:18:13;;;;;;;3.35;2.10;;;;;;;8.81;52.93;101884.00;4980546;28;20036;-91
2023/02/20 05:23:23;;;;;;;2.28;1.23;;;;;;;8.75;53.04;101878.09;5006238;28;20053;-92
2023/02/20 05:25:48;;;;;;;2.10;1.15;;;;;;;8.69;52.96;101881.69;5008055;28;20667;-91
2023/02/20 05:28:13;;;;;;;1.52;1.10;;;;;;;8.65;53.18;101882.59;5010099;28;20073;-83
2023/02/20 05:30:39;;;;;;;2.92;1.25;;;;;;;8.76;53.23;101901.31;5004978;28;20065;-90
2023/02/20 05:33:04;;;;;;;4.40;2.05;;;;;;;8.81;53.74;101912.38;5012711;28;20413;-86
2023/02/20 05:35:30;;;;;;;1.83;1.10;;;;;;;8.87;53.28;101919.16;4997304;28;20029;-85
2023/02/20 05:37:55;;;;;;;4.70;1.83;;;;;;;8.73;53.44;101897.94;5009645;28;20033;-92
2023/02/20 05:40:21;;;;;;;1.65;1.55;;;;;;;8.86;53.42;101933.78;5036341;28;20464;-94
2023/02/20 05:42:46;;;;;;;4.75;3.05;;;;;;;8.72;52.99;101919.47;5014665;28;20067;-89
2023/02/20 05:45:13;;;;;;;6.22;1.73;;;;;;;8.54;52.68;101907.78;5035471;28;20025;-82
2023/02/20 05:47:38;;;;;;;3.80;2.33;;;;;;;8.51;52.63;101903.53;5002759;28;20528;-81
2023/02/20 05:50:04;;;;;;;0.98;0.85;;;;;;;8.31;53.84;101924.53;5036926;28;20018;-90
2023/02/20 05:52:30;;;;;;;4.80;2.97;;;;;;;8.22;54.02;101908.38;5011121;28;20134;-85
2023/02/20 05:54:55;;;;;;;3.78;2.20;;;;;;;8.29;54.35;101915.97;4994704;28;20510;-90
2023/02/20 05:57:20;;;;;;;7.13;4.13;;;;;;;8.08;55.06;101894.91;4967948;28;20037;-85
2023/02/20 05:59:46;;;;;;;3.33;2.58;;;;;;;8.02;54.97;101895.84;5022446;28;20033;-87
2023/02/20 06:02:11;;;;;;;5.35;3.45;;;;;;;8.23;54.37;101936.69;5013171;28;20027;-93
2023/02/20 06:04:37;;;;;;;2.90;2.25;;;;;;;8.17;54.25;101929.09;5011296;28;20022;-91
2023/02/20 06:07:02;;;;;;;4.68;2.20;;;;;;;8.25;53.65;101934.09;5009625;28;20029;-95
2023/02/20 06:09:28;;;;;;;4.25;3.13;;;;;;;8.17;53.25;101920.50;5015477;28;20042;-93
2023/02/20 06:11:54;;;;;;;3.67;2.45;;;;;;;8.17;53.64;101939.41;5005429;28;20038;-92
2023/02/20 06:14:20;;;;;;;2.60;2.22;;;;;;;8.09;53.68;101932.69;5012292;28;20041;-78
2023/02/20 06:16:46;;;;;;;5.75;3.10;;;;;;;8.14;53.38;101941.16;5016963;28;20025;-82
2023/02/20 06:19:16;;;;;;;5.30;3.47;;;;;;;8.24;53.66;101942.69;5012246;28;20398;-84
2023/02/20 06:21:44;;;;;;;8.15;3.40;;;;;;;8.25;53.61;101955.56;5005795;28;20041;-84
2023/02/20 06:24:10;;;;;;;4.07;2.53;;;;;;;8.30;53.43;101974.38;5011116;28;20085;-87
2023/02/20 06:26:39;;;;;;;2.13;1.60;;;;;;;8.24;53.31;101966.75;5011141;28;20038;-87
2023/02/20 06:29:04;;;;;;;2.83;2.45;;;;;;;8.40;53.45;101989.72;4975378;28;20042;-81
2023/02/20 06:31:30;;;;;;;4.78;2.90;;;;;;;8.36;52.72;102003.53;4993456;28;20038;-90
2023/02/20 06:33:55;;;;;;;5.07;3.30;;;;;;;8.33;53.18;102000.09;5012065;28;20034;-93
2023/02/20 06:36:26;;;;;;;8.43;3.83;;;;;;;8.39;52.97;102006.09;4995292;28;20039;-90
2023/02/20 06:38:51;;;;;;;4.43;2.80;;;;;;;8.44;52.21;102009.41;4996186;28;20037;-90
2023/02/20 06:41:17;;;;;;;3.55;2.88;;;;;;;8.44;52.36;102025.75;5006698;28;20054;-92
2023/02/20 06:43:42;;;;;;;4.38;3.08;;;;;;;8.49;52.09;102010.19;5009899;28;20424;-89
2023/02/20 06:46:08;;;;;;;4.55;3.47;;;;;;;8.47;52.10;102010.22;5008170;28;20034;-92
2023/02/20 06:48:33;;;;;;;3.58;2.47;;;;;;;8.32;51.59;101982.94;5011076;28;20071;-89
2023/02/20 06:50:59;;;;;;;6.25;4.00;;;;;;;8.48;51.57;102006.78;4993796;28;20025;-84
2023/02/20 06:53:24;;;;;;;4.50;3.05;;;;;;;8.55;51.44;102025.53;5000376;28;20100;-92
2023/02/20 06:55:50;;;;;;;6.20;3.20;;;;;;;8.60;51.17;102023.75;5011851;28;20041;-91
2023/02/20 06:58:15;;;;;;;8.82;5.72;;;;;;;8.47;50.63;102015.38;5024549;28;20033;-91
2023/02/20 07:00:41;;;;;;;15.40;6.88;;;;;;;8.54;50.17;102024.69;5010788;28;20388;-82
2023/02/20 07:03:06;;;;;;;6.47;3.80;;;;;;;8.59;49.97;102022.91;4974384;28;20034;-82
2023/02/20 07:05:31;;;;;;;4.43;3.53;;;;;;;8.48;50.21;102018.81;5010267;28;20044;-94
2023/02/20 07:07:57;;;;;;;5.35;3.85;;;;;;;8.50;50.04;102022.22;5014719;28;20486;-89
2023/02/20 07:10:22;;;;;;;3.53;2.25;;;;;;;8.45;49.52;102030.00;4994634;28;20520;-91
2023/02/20 07:12:48;;;;;;;4.15;2.45;;;;;;;8.56;49.41;102032.44;5006325;28;20026;-93
2023/02/20 07:15:13;;;;;;;2.03;1.83;;;;;;;8.45;49.48;102021.44;4993196;28;20037;-90
2023/02/20 07:17:39;;;;;;;3.97;2.38;;;;;;;8.52;49.31;102030.75;5014383;28;20030;-90
2023/02/20 07:20:05;;;;;;;2.88;2.13;;;;;;;8.62;49.71;102035.72;5028580;28;20091;-90
2023/02/20 07:22:30;;;;;;;2.13;1.80;;;;;;;8.71;49.02;102032.13;5004235;28;20022;-91
2023/02/20 07:24:56;;;;;;;3.33;1.92;;;;;;;8.81;48.62;102035.38;5005470;28;20053;-88
2023/02/20 07:27:21;;;;;;;2.92;1.90;;;;;;;8.93;47.60;102021.38;5008818;28;20030;-87
2023/02/20 07:29:48;;;;;;;4.68;2.78;;;;;;;9.08;48.36;102034.00;5021793;28;20040;-94
2023/02/20 07:32:14;;;;;;;4.68;2.53;;;;;;;9.16;47.42;102021.78;5001270;28;20034;-80
2023/02/20 07:34:39;;;;;;;7.53;4.45;;;;;;;9.29;47.64;102025.81;4986007;28;20413;-81
2023/02/20 07:37:05;;;;;;;3.58;2.85;;;;;;;9.35;46.54;102020.53;5026962;28;20026;-82
2023/02/20 07:39:30;;;;;;;3.85;2.78;;;;;;;9.48;46.37;102027.09;5024609;28;20386;-89
2023/02/20 07:41:56;;;;;;;2.97;2.05;;;;;;;9.59;45.68;102029.44;5017261;28;20038;-92
2023/02/20 07:44:21;;;;;;;2.25;1.65;;;;;;;9.68;44.68;102049.06;5020459;28;20508;-88
2023/02/20 07:46:47;;;;;;;5.93;1.73;;;;;;;9.77;44.35;102038.53;5030780;28;20034;-84
2023/02/20 07:49:12;;;;;;;1.70;1.25;;;;;;;9.75;43.72;102055.81;5009845;28;20037;-90
2023/02/20 07:51:38;;;;;;;8.50;4.65;;;;;;;9.89;44.73;102060.66;5010790;28;20030;-92
2023/02/20 07:54:03;;;;;;;3.35;2.63;;;;;;;9.87;42.85;102045.19;5023072;28;20502;-87
2023/02/20 07:56:29;;;;;;;2.33;1.25;;;;;;;10.07;42.32;102052.47;4996268;28;20030;-88
2023/02/20 07:58:54;;;;;;;9.52;1.88;;;;;;;10.09;42.87;102062.75;4997842;28;20065;-91
2023/02/20 08:01:20;;;;;;;4.15;1.70;;;;;;;10.07;42.31;102053.31;5014692;28;20156;-89
2023/02/20 08:03:45;;;;;;;1.45;1.17;;;;;;;10.10;41.44;102029.09;5007326;28;20404;-81
2023/02/20 08:06:11;;;;;;;1.30;1.05;;;;;;;10.34;40.85;102066.50;5010901;28;20018;-94
2023/02/20 08:08:36;;;;;;;2.08;1.38;;;;;;;10.48;40.31;102073.91;5015397;28;20473;-90
2023/02/20 08:11:02;;;;;;;2.90;1.60;;;;;;;10.58;39.49;102076.19;5026235;28;20026;-88
2023/02/20 08:13:27;;;;;;;2.25;1.25;;;;;;;10.71;38.99;102070.69;5011919;28;20530;-91
2023/02/20 08:15:53;;;;;;;3.25;1.67;;;;;;;10.77;38.21;102076.56;4992175;28;20030;-91
2023/02/20 08:18:18;;;;;;;2.38;1.65;;;;;;;10.73;37.43;102089.66;5026800;28;20413;-87
2023/02/20 08:20:44;;;;;;;1.80;1.55;;;;;;;10.87;37.13;102082.34;5024946;28;20022;-91
2023/02/20 08:23:17;;;;;;;3.50;1.90;;;;;;;11.04;36.95;102090.53;5004013;28;20418;-87
2023/02/20 08:25:42;;;;;;;3.28;1.75;;;;;;;11.07;36.86;102099.94;5003753;28;20014;-85
2023/02/20 08:28:08;;;;;;;3.75;2.15;;;;;;;11.26;36.42;102121.00;5015888;28;20045;-94
2023/02/20 08:30:33;;;;;;;2.13;1.33;;;;;;;11.27;36.67;102114.94;5023420;28;20034;-85
2023/02/20 08:33:05;;;;;;;3.63;1.60;;;;;;;11.33;35.99;102112.19;5010886;28;20084;-95
2023/02/20 08:35:33;;;;;;;8.85;2.70;;;;;;;11.31;36.13;102108.78;5015673;28;21084;-88
2023/02/20 08:37:59;;;;;;;2.05;1.85;;;;;;;10.92;36.03;102080.50;5002475;28;20030;-88
2023/02/20 08:40:25;;;;;;;2.40;1.75;;;;;;;11.20;35.82;102103.88;5008753;28;20033;-88
2023/02/20 08:42:50;;;;;;;2.00;1.25;;;;;;;11.13;35.77;102100.63;5022543;28;20041;-86
2023/02/20 08:45:18;;;;;;;4.50;2.83;;;;;;;11.39;35.10;102118.00;5016715;28;20501;-91
2023/02/20 08:47:43;;;;;;;3.15;2.17;;;;;;;11.35;34.86;102124.19;5012925;28;20018;-90
2023/02/20 08:50:09;;;;;;;1.52;1.08;;;;;;;11.36;34.79;102107.75;5028166;28;20076;-91
2023/02/20 08:52:34;;;;;;;2.03;1.23;;;;;;;11.31;34.62;102129.50;4973898;28;20058;-94
2023/02/20 08:55:00;;;;;;;3.40;1.77;;;;;;;11.27;34.55;102095.03;5020176;28;20544;-81
2023/02/20 08:57:27;;;;;;;1.27;1.10;;;;;;;11.39;35.23;102111.97;5014455;28;20866;-96
2023/02/20 08:59:53;;;;;;;2.50;1.45;;;;;;;11.48;35.57;102096.16;5032211;28;20515;-93
2023/02/20 09:02:20;;;;;;;1.88;1.20;;;;;;;11.63;35.33;102098.31;5003206;28;20021;-91
2023/02/20 09:04:45;;;;;;;2.58;1.98;;;;;;;11.70;34.69;102091.19;4996548;28;20034;-89
2023/02/20 09:07:12;;;;;;;3.17;1.83;;;;;;;11.84;34.75;102089.06;5024638;28;20053;-89
2023/02/20 09:09:37;;;;;;;2.10;1.63;;;;;;;11.95;33.98;102102.56;4998950;28;20386;-95
2023/02/20 09:12:03;;;;;;;2.97;1.98;;;;;;;12.00;33.73;102082.53;5000043;28;20031;-90
2023/02/20 09:14:28;;;;;;;3.92;1.92;;;;;;;12.06;33.59;102086.66;4996183;28;20557;-86
2023/02/20 09:16:54;;;;;;;2.95;1.83;;;;;;;11.84;33.59;102094.25;5018036;28;20037;-90
2023/02/20 09:19:20;;;;;;;3.75;2.67;;;;;;;11.84;33.66;102088.22;5005801;28;20482;-91
2023/02/20 09:21:46;;;;;;;1.83;1.42;;;;;;;11.68;34.01;102093.81;5001963;28;20506;-92
2023/02/20 09:24:12;;;;;;;3.42;2.00;;;;;;;11.63;34.51;102090.53;5004780;28;20026;-85
2023/02/20 09:26:37;;;;;;;3.15;1.55;;;;;;;11.63;33.87;102100.91;5007089;28;20030;-82
2023/02/20 09:29:03;;;;;;;3.22;1.95;;;;;;;11.34;34.00;102081.03;5018610;28;20047;-81
2023/02/20 09:31:28;;;;;;;4.68;1.40;;;;;;;11.56;34.24;102075.22;5010743;28;20038;-91
2023/02/20 09:33:54;;;;;;;3.42;1.58;;;;;;;11.59;33.88;102072.53;5001437;28;20084;-88
2023/02/20 09:36:19;;;;;;;3.80;2.28;;;;;;;11.55;33.87;102095.09;5010620;28;20034;-90
2023/02/20 09:38:44;;;;;;;2.85;1.77;;;;;;;11.59;33.48;102083.72;5021503;28;20026;-91
2023/02/20 09:41:25;;;;;;;1.95;1.55;;;;;;;11.63;34.29;102090.53;5015971;28;20041;-90
2023/02/20 09:44:22;;;;;;;3.08;1.77;;;;;;;11.53;33.99;102083.09;5004986;28;20033;-89
2023/02/20 09:46:49;;;;;;;3.63;2.13;;;;;;;11.42;34.37;102054.91;4995135;28;20390;-81
2023/02/20 09:49:24;;;;;;;5.32;2.25;;;;;;;11.65;34.12;102056.78;4992247;28;20026;-91
2023/02/20 09:51:53;;;;;;;3.22;1.42;;;;;;;11.60;34.03;102069.91;4989679;28;20432;-86
2023/02/20 09:54:30;;;;;;;3.55;1.70;;;;;;;11.45;34.71;102072.94;4979136;28;20115;-82
2023/02/20 09:56:57;;;;;;;4.97;1.95;;;;;;;11.45;34.63;102070.34;5016140;28;20026;-85
2023/02/20 09:59:39;;;;;;;1.58;1.23;;;;;;;11.47;34.36;102078.94;5025159;28;20030;-88
2023/02/20 10:02:31;;;;;;;2.10;1.20;;;;;;;11.39;34.33;102086.06;5008639;28;20030;-89
2023/02/20 10:05:01;;;;;;;2.03;1.75;;;;;;;11.25;34.71;102081.28;4977770;28;20081;-85
2023/02/20 10:07:32;;;;;;;2.55;1.95;;;;;;;11.08;34.11;102053.28;5018461;28;20506;-84
2023/02/20 10:09:58;;;;;;;2.95;1.58;;;;;;;11.43;33.36;102072.16;5010382;28;20049;-95
2023/02/20 10:12:31;;;;;;;1.60;1.10;;;;;;;11.47;31.92;102086.69;5009240;28;20030;-86
2023/02/20 10:15:21;;;;;;;7.25;1.33;;;;;;;11.56;31.76;102088.16;5017158;28;20062;-78
2023/02/20 10:17:52;;;;;;;1.13;1.02;;;;;;;11.54;31.55;102075.25;4999322;28;20133;-80
2023/02/20 10:20:47;;;;;;;9.18;1.25;;;;;;;11.69;32.11;102102.47;4993554;28;20030;-81
2023/02/20 10:23:20;;;;;;;4.60;1.08;;;;;;;11.70;31.46;102091.19;5017622;28;20086;-96
2023/02/20 10:25:48;;;;;;;0.95;0.80;;;;;;;11.77;31.52;102090.13;5017012;28;20101;-94
2023/02/20 10:28:15;;;;;;;2.08;1.42;;;;;;;11.82;31.02;102075.31;5005479;28;20046;-83
2023/02/20 10:30:45;;;;;;;2.10;1.25;;;;;;;11.98;30.68;102089.47;5006241;28;20117;-82
2023/02/20 10:34:09;;;;;;;2.83;1.48;;;;;;;12.16;30.50;102100.16;4990171;28;20041;-83
2023/02/20 10:36:37;;;;;;;1.17;0.98;;;;;;;12.20;29.99;102071.50;4992357;28;20088;-95
2023/02/20 10:39:14;;;;;;;1.90;1.25;;;;;;;12.50;29.67;102068.78;5006296;28;20045;-92
2023/02/20 10:41:53;;;;;;;1.48;1.05;;;;;;;12.82;28.63;102096.22;5007407;28;20120;-83
2023/02/20 10:44:48;;;;;;;1.40;1.02;;;;;;;12.98;27.66;102088.72;4992547;28;20089;-84
2023/02/20 10:47:30;;;;;;;1.52;1.13;;;;;;;13.14;26.70;102098.53;4990129;28;20540;-80
2023/02/20 10:50:04;;;;;;;1.20;0.70;;;;;;;13.16;25.89;102090.66;5003944;28;20057;-81
2023/02/20 10:52:41;;;;;;;1.50;1.02;;;;;;;13.26;26.03;102091.22;5005366;28;20352;-79
2023/02/20 10:55:12;;;;;;;2.63;1.50;;;;;;;13.35;25.82;102102.13;4986660;28;20080;-78
2023/02/20 10:57:46;;;;;;;1.20;1.10;;;;;;;13.45;26.31;102080.06;5002042;28;20025;-84
2023/02/20 11:00:48;;;;;;;1.77;1.33;;;;;;;13.65;26.77;102094.06;5008518;28;20032;-95
2023/02/20 11:03:17;;;;;;;2.03;1.35;;;;;;;13.76;26.89;102084.09;5004666;28;20096;-96
2023/02/20 11:05:46;;;;;;;1.17;1.02;;;;;;;13.74;26.51;102054.69;4994829;28;20046;-92
2023/02/20 11:08:11;;;;;;;0.98;0.82;;;;;;;14.04;25.11;102071.69;5015839;28;20037;-77
2023/02/20 11:10:37;;;;;;;1.35;1.02;;;;;;;14.08;25.27;102062.00;5023717;28;20034;-78
2023/02/20 11:13:03;;;;;;;1.77;1.23;;;;;;;14.02;24.79;102047.50;5007589;28;20088;-89
2023/02/20 11:15:31;;;;;;;1.42;1.05;;;;;;;14.18;25.06;102067.69;4996088;28;20062;-87
2023/02/20 11:17:58;;;;;;;3.75;2.13;;;;;;;14.26;25.07;102083.84;5024514;28;20112;-88
2023/02/20 11:20:41;;;;;;;7.53;1.40;;;;;;;14.18;26.05;102072.91;4989359;28;20054;-82
2023/02/20 11:23:07;;;;;;;1.02;0.77;;;;;;;14.17;26.11;102056.44;5024864;28;20030;-85
2023/02/20 11:25:33;;;;;;;3.53;1.30;;;;;;;14.04;25.07;102055.22;5006539;28;20038;-84
2023/02/20 11:28:21;;;;;;;5.10;0.98;;;;;;;13.88;25.04;102070.63;4978690;28;20054;-82
2023/02/20 11:30:49;;;;;;;1.15;0.73;;;;;;;13.76;24.89;102047.69;4999063;28;20022;-89
2023/02/20 11:33:15;;;;;;;1.77;1.00;;;;;;;13.69;25.13;102043.66;5006156;28;20034;-83
2023/02/20 11:35:45;;;;;;;0.50;0.50;;;;;;;13.67;24.99;102055.88;5005117;28;20030;-81
2023/02/20 11:38:32;;;;;;;1.42;0.90;;;;;;;13.67;25.58;102043.72;5018577;28;20512;-87
2023/02/20 11:41:01;;;;;;;0.75;0.75;;;;;;;13.89;25.54;102045.47;4993934;28;20576;-89
2023/02/20 11:43:34;;;;;;;1.08;0.73;;;;;;;13.80;25.98;102032.81;5000072;28;20084;-89
2023/02/20 11:46:06;;;;;;;3.03;1.00;;;;;;;13.76;25.80;102025.16;4989440;28;20053;-89
2023/02/20 11:48:31;;;;;;;1.02;0.75;;;;;;;13.72;25.77;102012.31;5020789;28;20026;-84
2023/02/20 11:50:57;;;;;;;2.33;1.15;;;;;;;13.86;26.33;102020.38;4994391;28;20037;-80
2023/02/20 11:53:24;;;;;;;1.10;0.70;;;;;;;13.77;25.89;102010.38;5001528;28;20428;-78
2023/02/20 11:56:07;;;;;;;1.15;0.60;;;;;;;13.86;25.71;102016.94;4988897;28;20092;-82